Time;durP1;ratioP1;P1;durP2;ratioP2;P2;SDS_P1;SDS_P2;PMS_P1;PMS_P2;Temp;Humidity;BMP_temperature;BMP_pressure;BME280_temperature;BME280_humidity;BME280_pressure;Samples;Min_cycle;Max_cycle;Signal;HPM_P1;HPM_P2
2023/01/19 00:00:24;;;;;;;2.22;2.00;;;;;;;19.15;51.97;98708.94;5046466;28;20154;-84
2023/01/19 00:02:50;;;;;;;2.20;1.90;;;;;;;19.13;51.76;98717.34;5046788;28;20459;-83
2023/01/19 00:05:15;;;;;;;2.10;1.90;;;;;;;19.11;52.04;98702.50;5049323;28;20033;-84
2023/01/19 00:07:41;;;;;;;2.17;1.98;;;;;;;19.14;51.95;98702.72;5047481;28;20033;-83
2023/01/19 00:10:08;;;;;;;2.58;2.25;;;;;;;19.14;51.87;98691.91;5049366;28;20377;-83
2023/01/19 00:12:33;;;;;;;2.45;1.95;;;;;;;19.16;51.81;98686.16;5045742;28;20065;-84
2023/01/19 00:14:59;;;;;;;2.58;2.10;;;;;;;19.14;51.74;98670.22;5030985;28;20032;-84
2023/01/19 00:17:25;;;;;;;1.98;1.63;;;;;;;19.17;51.97;98670.75;5030767;28;20025;-83
2023/01/19 00:19:51;;;;;;;1.98;1.80;;;;;;;19.15;51.81;98654.78;5031027;28;20032;-85
2023/01/19 00:22:16;;;;;;;2.22;1.80;;;;;;;19.13;51.96;98648.84;5031361;28;20489;-83
2023/01/19 00:24:43;;;;;;;2.70;1.77;;;;;;;19.16;51.96;98642.03;5051840;28;20049;-84
2023/01/19 00:27:09;;;;;;;1.85;1.63;;;;;;;19.16;51.81;98634.72;5034603;28;20072;-84
2023/01/19 00:29:35;;;;;;;1.83;1.70;;;;;;;19.14;51.98;98637.75;5052241;28;20025;-84
2023/01/19 00:32:01;;;;;;;1.98;1.80;;;;;;;19.16;51.83;98633.91;5038916;28;20033;-84
2023/01/19 00:34:35;;;;;;;2.30;2.00;;;;;;;19.17;52.07;98627.44;5030515;28;20094;-83
2023/01/19 00:37:02;;;;;;;2.33;2.03;;;;;;;19.13;52.08;98624.50;5017449;28;20450;-83
2023/01/19 00:39:28;;;;;;;2.33;1.88;;;;;;;19.13;52.00;98619.88;5009367;28;20108;-83
2023/01/19 00:44:38;;;;;;;1.98;1.77;;;;;;;19.14;52.04;98615.25;5013444;28;20107;-83
2023/01/19 00:47:04;;;;;;;2.33;2.10;;;;;;;19.13;51.96;98605.53;5027884;28;20642;-83
2023/01/19 00:49:30;;;;;;;2.35;1.65;;;;;;;19.16;51.84;98609.56;5011117;28;20022;-82
2023/01/19 00:51:56;;;;;;;1.92;1.65;;;;;;;19.18;51.72;98599.22;5011137;28;20147;-83
2023/01/19 00:54:21;;;;;;;1.90;1.70;;;;;;;19.17;51.81;98592.22;5028288;28;20030;-83
2023/01/19 00:56:47;;;;;;;2.40;1.90;;;;;;;19.19;51.91;98576.50;5010298;28;20029;-83
2023/01/19 00:59:13;;;;;;;1.90;1.80;;;;;;;19.17;51.81;98579.47;5010551;28;20032;-83
2023/01/19 01:01:38;;;;;;;2.17;1.73;;;;;;;19.15;51.82;98576.25;5010528;28;20104;-83
2023/01/19 01:04:04;;;;;;;1.90;1.70;;;;;;;19.18;51.71;98581.09;5028266;28;20426;-83
2023/01/19 01:06:30;;;;;;;2.33;1.85;;;;;;;19.13;51.83;98573.84;5028122;28;20056;-83
2023/01/19 01:08:55;;;;;;;1.85;1.67;;;;;;;19.16;51.78;98575.16;5028141;28;20061;-83
2023/01/19 01:11:21;;;;;;;2.10;1.90;;;;;;;19.17;51.86;98573.28;5028251;28;20094;-83
2023/01/19 01:13:47;;;;;;;2.15;1.95;;;;;;;19.13;51.68;98556.78;5015231;28;20067;-83
2023/01/19 01:16:15;;;;;;;1.77;1.67;;;;;;;19.16;51.97;98558.91;5046614;28;20068;-83
2023/01/19 01:18:41;;;;;;;2.10;1.90;;;;;;;19.19;51.67;98558.34;5046476;28;20101;-83
2023/01/19 01:21:11;;;;;;;2.10;1.90;;;;;;;19.19;51.73;98563.75;5047827;28;20021;-83
2023/01/19 01:23:38;;;;;;;2.08;1.88;;;;;;;19.19;51.77;98563.75;5047307;28;20029;-83
2023/01/19 01:26:04;;;;;;;2.13;1.95;;;;;;;19.20;51.56;98559.97;5047577;28;20025;-83
2023/01/19 01:28:30;;;;;;;1.75;1.65;;;;;;;19.17;51.52;98555.13;5047276;28;20343;-83
2023/01/19 01:30:56;;;;;;;1.95;1.75;;;;;;;19.17;51.93;98549.69;5046057;28;20043;-83
2023/01/19 01:33:21;;;;;;;2.17;1.90;;;;;;;19.19;51.58;98544.78;5047481;28;20033;-83
2023/01/19 01:35:48;;;;;;;2.10;1.90;;;;;;;19.17;51.62;98541.56;5047574;28;20029;-83
2023/01/19 01:38:14;;;;;;;2.47;2.28;;;;;;;19.22;51.51;98535.31;5046354;28;20029;-83
2023/01/19 01:40:40;;;;;;;2.10;1.90;;;;;;;19.21;51.47;98534.47;5046441;28;20478;-84
2023/01/19 01:43:13;;;;;;;2.25;2.00;;;;;;;19.21;51.66;98522.84;5048532;28;20083;-84
2023/01/19 01:45:39;;;;;;;2.07;1.80;;;;;;;19.19;51.47;98514.22;5045179;28;20021;-84
2023/01/19 01:48:12;;;;;;;2.08;1.77;;;;;;;19.22;51.46;98516.34;5046370;28;20033;-84
2023/01/19 01:51:22;;;;;;;1.80;1.70;;;;;;;19.23;51.40;98510.63;5045444;28;20025;-84
2023/01/19 01:53:26;;;;;;;2.08;1.88;;;;;;;19.20;51.48;98500.38;5046031;28;20425;-84
2023/01/19 01:55:51;;;;;;;2.17;1.98;;;;;;;19.21;51.70;98496.56;5046012;28;20060;-84
2023/01/19 01:58:17;;;;;;;2.03;1.80;;;;;;;19.19;51.63;98497.97;5045960;28;20039;-84
2023/01/19 02:03:27;;;;;;;2.45;2.00;;;;;;;19.20;51.64;98481.44;5047292;28;20047;-84
2023/01/19 02:05:56;;;;;;;1.95;1.70;;;;;;;19.20;51.69;98488.75;5046870;28;20029;-83
2023/01/19 02:14:03;;;;;;;2.10;1.88;;;;;;;19.20;51.55;98467.88;5030155;28;20090;-84
2023/01/19 02:16:29;;;;;;;1.90;1.80;;;;;;;19.22;51.64;98467.59;5027190;28;20063;-84
2023/01/19 02:18:55;;;;;;;1.75;1.55;;;;;;;19.21;51.62;98447.81;5007598;28;20029;-83
2023/01/19 02:21:27;;;;;;;2.03;1.65;;;;;;;19.22;51.70;98440.53;5009583;28;20034;-83
2023/01/19 02:23:57;;;;;;;2.17;1.98;;;;;;;19.20;51.48;98440.81;4994283;28;20083;-83
2023/01/19 02:26:30;;;;;;;1.60;1.50;;;;;;;19.19;51.55;98432.97;4990343;28;20033;-83
2023/01/19 02:29:04;;;;;;;2.03;1.80;;;;;;;19.19;51.57;98433.78;4992039;28;20026;-83
2023/01/19 02:31:31;;;;;;;2.50;2.03;;;;;;;19.23;51.55;98426.69;5026570;28;20025;-83
2023/01/19 02:33:56;;;;;;;2.13;1.90;;;;;;;19.23;51.68;98426.69;4992679;28;20034;-83
2023/01/19 02:36:31;;;;;;;2.55;2.00;;;;;;;19.21;51.81;98420.75;4991967;28;20029;-83
2023/01/19 02:38:57;;;;;;;2.38;2.00;;;;;;;19.21;51.81;98419.94;5009538;28;20112;-84
2023/01/19 02:41:25;;;;;;;2.20;1.90;;;;;;;19.20;51.47;98413.72;5009717;28;20108;-84
2023/01/19 02:43:51;;;;;;;2.10;1.90;;;;;;;19.23;51.76;98417.75;5026924;28;20033;-83
2023/01/19 02:46:16;;;;;;;2.10;1.73;;;;;;;19.24;51.54;98408.53;5008619;28;20029;-83
2023/01/19 02:48:42;;;;;;;2.17;1.98;;;;;;;19.23;51.43;98404.19;5026894;28;20036;-83
2023/01/19 02:51:21;;;;;;;2.28;2.00;;;;;;;19.23;51.91;98396.91;5027504;28;20030;-83
2023/01/19 02:54:05;;;;;;;2.20;2.00;;;;;;;19.26;51.62;98390.09;5009169;28;20040;-83
2023/01/19 02:56:49;;;;;;;2.22;2.03;;;;;;;19.24;51.51;98382.25;5026600;28;20053;-83
2023/01/19 02:59:22;;;;;;;2.08;1.85;;;;;;;19.25;51.50;98383.06;5026727;28;20025;-83
2023/01/19 03:01:56;;;;;;;2.05;1.80;;;;;;;19.24;51.64;98376.84;5009951;28;20030;-83
2023/01/19 03:04:50;;;;;;;1.88;1.67;;;;;;;19.23;51.52;98369.81;5027237;28;20117;-84
2023/01/19 03:07:21;;;;;;;1.67;1.58;;;;;;;19.21;51.72;98371.19;5008452;28;20039;-83
2023/01/19 03:10:25;;;;;;;2.15;1.95;;;;;;;19.21;51.77;98354.97;5026158;28;20113;-84
2023/01/19 03:13:29;;;;;;;1.80;1.70;;;;;;;19.25;51.36;98356.78;4995119;28;20410;-84
2023/01/19 03:16:11;;;;;;;1.95;1.77;;;;;;;19.21;51.75;98342.22;5022422;28;20170;-83
2023/01/19 03:18:37;;;;;;;1.40;1.30;;;;;;;19.24;51.47;98338.13;5025595;28;20021;-84
2023/01/19 03:21:05;;;;;;;1.60;1.42;;;;;;;19.25;51.43;98329.72;5028570;28;20017;-84
2023/01/19 03:23:31;;;;;;;1.70;1.60;;;;;;;19.23;51.45;98317.56;4995807;28;20498;-84
2023/01/19 03:25:57;;;;;;;2.30;1.77;;;;;;;19.24;51.50;98309.13;5030281;28;20028;-84
2023/01/19 03:28:23;;;;;;;2.10;1.50;;;;;;;19.22;51.56;98302.41;5025071;28;20704;-84
2023/01/19 03:30:55;;;;;;;1.70;1.40;;;;;;;19.23;51.46;98291.31;5012418;28;20432;-84
2023/01/19 03:33:26;;;;;;;1.30;1.20;;;;;;;19.23;51.25;98288.59;5010026;28;20163;-84
2023/01/19 03:35:53;;;;;;;1.65;1.55;;;;;;;19.23;51.37;98276.94;4996619;28;20356;-85
2023/01/19 03:38:24;;;;;;;2.17;1.60;;;;;;;19.22;51.48;98278.06;4995147;28;20379;-85
2023/01/19 03:40:51;;;;;;;1.50;1.40;;;;;;;19.22;51.20;98275.34;5011702;28;20451;-85
2023/01/19 03:43:17;;;;;;;1.67;1.58;;;;;;;19.26;51.43;98269.03;5029380;28;20053;-85
2023/01/19 03:45:42;;;;;;;1.50;1.40;;;;;;;19.25;51.30;98270.13;5028779;28;20120;-85
2023/01/19 03:48:08;;;;;;;1.48;1.33;;;;;;;19.23;51.52;98263.41;5009377;28;20029;-85
2023/01/19 03:50:34;;;;;;;1.70;1.45;;;;;;;19.23;51.15;98261.50;5028564;28;20080;-85
2023/01/19 03:53:06;;;;;;;1.45;1.35;;;;;;;19.26;51.22;98266.31;5029676;28;20426;-85
2023/01/19 03:55:33;;;;;;;1.38;1.27;;;;;;;19.24;51.44;98260.41;5012292;28;20029;-85
2023/01/19 03:57:59;;;;;;;1.50;1.40;;;;;;;19.25;51.54;98253.09;5027502;28;20025;-87
2023/01/19 04:00:24;;;;;;;1.50;1.40;;;;;;;19.26;51.40;98257.41;5029028;28;20079;-87
2023/01/19 04:02:50;;;;;;;1.60;1.50;;;;;;;19.25;51.58;98251.19;5029483;28;20052;-86
2023/01/19 04:05:16;;;;;;;1.73;1.48;;;;;;;19.25;51.34;98256.59;5029747;28;20060;-86
2023/01/19 04:07:42;;;;;;;1.30;1.20;;;;;;;19.25;51.46;98253.09;5029442;28;20026;-86
2023/01/19 04:10:11;;;;;;;1.30;1.20;;;;;;;19.24;51.50;98246.84;5029578;28;20037;-86
2023/01/19 04:12:38;;;;;;;1.27;1.10;;;;;;;19.21;51.48;98242.03;5014438;28;20444;-85
2023/01/19 04:15:05;;;;;;;1.08;1.00;;;;;;;19.24;51.45;98240.66;5047939;28;20025;-85
2023/01/19 04:17:31;;;;;;;1.40;1.23;;;;;;;19.24;51.49;98246.84;5048615;28;20017;-85
2023/01/19 04:19:57;;;;;;;1.50;1.40;;;;;;;19.26;51.50;98238.44;5049263;28;20025;-85
2023/01/19 04:22:22;;;;;;;1.25;1.15;;;;;;;19.24;51.64;98236.03;5047669;28;20037;-85
2023/01/19 04:24:48;;;;;;;1.48;1.30;;;;;;;19.25;51.48;98221.41;5048417;28;20040;-85
2023/01/19 04:27:15;;;;;;;1.60;1.45;;;;;;;19.25;51.50;98221.41;5047815;28;20036;-85
2023/01/19 04:29:41;;;;;;;1.20;1.10;;;;;;;19.25;51.42;98204.34;5048764;28;20033;-85
2023/01/19 04:32:07;;;;;;;1.20;1.10;;;;;;;19.23;51.44;98207.34;5048568;28;20028;-86
2023/01/19 04:34:32;;;;;;;1.15;1.05;;;;;;;19.23;51.49;98201.94;5048833;28;20033;-85
2023/01/19 04:36:58;;;;;;;1.55;1.33;;;;;;;19.25;51.45;98204.34;5047664;28;20497;-86
2023/01/19 04:39:24;;;;;;;1.17;1.08;;;;;;;19.23;51.38;98201.94;5048987;28;20021;-86
2023/01/19 04:41:50;;;;;;;1.20;1.10;;;;;;;19.24;51.44;98200.03;5048192;28;20033;-86
2023/01/19 04:44:16;;;;;;;1.00;1.00;;;;;;;19.25;51.08;98194.31;5047980;28;20021;-86
2023/01/19 04:46:42;;;;;;;1.23;1.10;;;;;;;19.25;51.15;98191.59;5046687;28;20033;-86
2023/01/19 04:49:11;;;;;;;1.17;1.08;;;;;;;19.25;51.40;98194.31;5048446;28;20493;-86
2023/01/19 04:51:37;;;;;;;1.10;1.00;;;;;;;19.26;51.30;98190.50;5046890;28;20021;-87
2023/01/19 04:54:02;;;;;;;1.23;1.13;;;;;;;19.25;51.01;98183.47;5046773;28;20102;-87
2023/01/19 04:56:28;;;;;;;1.15;1.05;;;;;;;19.26;51.30;98184.28;5047140;28;20543;-86
2023/01/19 04:58:54;;;;;;;0.93;0.93;;;;;;;19.26;51.33;98193.19;5049372;28;20024;-86
2023/01/19 05:01:19;;;;;;;0.98;0.90;;;;;;;19.24;51.74;98183.78;5049997;28;20040;-86
2023/01/19 05:03:45;;;;;;;1.13;1.02;;;;;;;19.26;51.21;98184.28;5055581;28;20040;-86
2023/01/19 05:06:11;;;;;;;1.33;1.17;;;;;;;19.26;51.12;98179.66;5071402;28;20071;-86
2023/01/19 05:08:37;;;;;;;0.70;0.70;;;;;;;19.28;50.97;98182.91;5071332;28;20037;-86
2023/01/19 05:11:03;;;;;;;1.00;0.90;;;;;;;19.28;51.19;98177.47;5071595;28;20096;-85
2023/01/19 05:13:29;;;;;;;0.82;0.77;;;;;;;19.28;51.08;98185.59;5038154;28;20120;-86
2023/01/19 05:15:54;;;;;;;1.10;1.00;;;;;;;19.26;51.29;98179.66;5010834;28;20029;-86
2023/01/19 05:18:20;;;;;;;0.85;0.82;;;;;;;19.26;51.20;98176.16;5028443;28;20480;-86
2023/01/19 05:20:46;;;;;;;1.17;1.08;;;;;;;19.29;51.26;98173.66;5008473;28;20148;-86
2023/01/19 05:23:12;;;;;;;0.70;0.70;;;;;;;19.26;51.35;98162.63;5028540;28;20554;-86
2023/01/19 05:25:37;;;;;;;1.00;0.90;;;;;;;19.25;51.43;98159.13;5028030;28;20035;-85
2023/01/19 05:28:05;;;;;;;0.80;0.80;;;;;;;19.27;51.39;98165.03;5028022;28;20029;-85
2023/01/19 05:30:31;;;;;;;1.10;1.00;;;;;;;19.27;51.22;98154.19;5027588;28;20022;-86
2023/01/19 05:32:57;;;;;;;1.02;0.93;;;;;;;19.25;51.23;98159.13;5028090;28;20036;-85
2023/01/19 05:35:23;;;;;;;0.70;0.70;;;;;;;19.25;51.40;98156.41;5028018;28;20501;-86
2023/01/19 05:37:48;;;;;;;1.00;0.90;;;;;;;19.26;51.29;98146.38;5028123;28;20033;-86
2023/01/19 05:40:17;;;;;;;0.80;0.80;;;;;;;19.25;51.23;98140.16;5028137;28;20029;-87
2023/01/19 05:42:42;;;;;;;0.85;0.85;;;;;;;19.25;51.34;98142.88;5009284;28;20475;-87
2023/01/19 05:45:11;;;;;;;0.65;0.65;;;;;;;19.27;51.24;98129.03;5027925;28;20038;-86
2023/01/19 05:47:38;;;;;;;0.80;0.80;;;;;;;19.25;51.60;98140.16;5024135;28;20044;-86
2023/01/19 05:50:05;;;;;;;0.75;0.75;;;;;;;19.25;51.22;98134.75;5007468;28;20037;-87
2023/01/19 05:52:30;;;;;;;0.82;0.82;;;;;;;19.27;51.09;98127.13;5008716;28;20352;-87
2023/01/19 05:54:56;;;;;;;0.60;0.60;;;;;;;19.24;51.83;98127.72;5010239;28;20044;-86
2023/01/19 05:57:22;;;;;;;0.80;0.80;;;;;;;19.27;51.42;98129.81;5027821;28;20100;-86
2023/01/19 05:59:48;;;;;;;0.60;0.60;;;;;;;19.29;51.31;98127.63;5008335;28;20490;-86
2023/01/19 06:02:16;;;;;;;0.70;0.70;;;;;;;19.29;51.31;98124.91;5025701;28;20048;-86
2023/01/19 06:04:42;;;;;;;0.50;0.50;;;;;;;19.30;51.33;98121.09;5025995;28;20033;-86
2023/01/19 06:07:07;;;;;;;0.90;0.88;;;;;;;19.29;51.33;98118.69;5025839;28;20022;-85
2023/01/19 06:09:33;;;;;;;0.80;0.80;;;;;;;19.27;51.50;98110.88;5026005;28;20595;-85
2023/01/19 06:12:01;;;;;;;0.73;0.73;;;;;;;19.28;51.48;98104.34;5025868;28;20433;-85
2023/01/19 06:14:27;;;;;;;0.68;0.68;;;;;;;19.29;51.44;98108.66;5026595;28;20049;-85
2023/01/19 06:16:53;;;;;;;0.70;0.70;;;;;;;19.27;51.47;98105.44;5026958;28;20116;-86
2023/01/19 06:19:18;;;;;;;0.52;0.52;;;;;;;19.26;51.37;98106.53;5010523;28;20426;-86
2023/01/19 06:21:48;;;;;;;0.55;0.55;;;;;;;19.30;51.62;98104.84;5027695;28;20487;-86
2023/01/19 06:24:18;;;;;;;0.65;0.65;;;;;;;19.28;51.72;98106.25;5008947;28;20525;-85
2023/01/19 06:26:43;;;;;;;0.63;0.63;;;;;;;19.26;51.35;98103.84;5026071;28;20107;-85
2023/01/19 06:29:10;;;;;;;0.60;0.60;;;;;;;19.24;51.76;98106.03;5027888;28;20038;-86
2023/01/19 06:31:36;;;;;;;0.70;0.60;;;;;;;19.27;51.59;98107.38;5027426;28;20487;-86
2023/01/19 06:34:02;;;;;;;0.70;0.70;;;;;;;19.29;51.54;98105.16;5027366;28;20087;-86
2023/01/19 06:36:27;;;;;;;0.50;0.50;;;;;;;19.27;51.69;98101.94;5027347;28;20481;-86
2023/01/19 06:38:53;;;;;;;0.60;0.60;;;;;;;19.30;51.52;98107.56;5027651;28;20025;-85
2023/01/19 06:41:19;;;;;;;0.50;0.50;;;;;;;19.26;51.63;98106.53;5027515;28;20021;-84
2023/01/19 06:43:45;;;;;;;0.50;0.50;;;;;;;19.26;51.81;98100.34;5027679;28;20048;-84
2023/01/19 06:46:10;;;;;;;0.60;0.60;;;;;;;19.27;51.52;98108.16;5027162;28;20483;-85
2023/01/19 06:48:36;;;;;;;0.55;0.50;;;;;;;19.27;51.39;98100.03;5027264;28;20037;-84
2023/01/19 06:51:02;;;;;;;0.60;0.60;;;;;;;19.28;51.66;98098.13;5009790;28;20034;-84
2023/01/19 06:53:29;;;;;;;0.50;0.50;;;;;;;19.26;51.49;98106.53;5027214;28;20032;-83
2023/01/19 06:56:03;;;;;;;0.50;0.50;;;;;;;19.27;51.56;98110.88;5011526;28;20030;-83
2023/01/19 06:58:29;;;;;;;0.50;0.50;;;;;;;19.26;51.73;98109.25;4996659;28;20021;-85
2023/01/19 07:00:57;;;;;;;0.40;0.40;;;;;;;19.30;51.48;98109.47;5030746;28;20040;-85
2023/01/19 07:03:23;;;;;;;0.50;0.50;;;;;;;19.28;51.71;98112.47;5013126;28;20029;-85
2023/01/19 07:05:52;;;;;;;0.55;0.55;;;;;;;19.28;51.44;98120.59;5030668;28;20179;-85
2023/01/19 07:08:17;;;;;;;0.50;0.50;;;;;;;19.31;51.48;98108.34;5030008;28;20438;-84
2023/01/19 07:10:43;;;;;;;0.47;0.47;;;;;;;19.27;51.74;98116.28;5030401;28;20037;-86
2023/01/19 07:13:09;;;;;;;0.55;0.55;;;;;;;19.25;51.42;98107.66;5024814;28;20395;-84
2023/01/19 07:15:36;;;;;;;0.50;0.50;;;;;;;19.29;51.69;98119.50;5049237;28;20025;-84
2023/01/19 07:18:06;;;;;;;0.60;0.60;;;;;;;19.29;51.53;98118.69;5050114;28;20498;-83
2023/01/19 07:20:33;;;;;;;0.73;0.52;;;;;;;19.27;51.75;98119.00;5048597;28;20025;-83
2023/01/19 07:22:58;;;;;;;0.50;0.50;;;;;;;19.29;51.72;98116.00;5050080;28;20036;-83
2023/01/19 07:25:25;;;;;;;0.35;0.35;;;;;;;19.28;51.67;98117.91;5050211;28;20382;-83
2023/01/19 07:27:51;;;;;;;0.60;0.50;;;;;;;19.29;51.64;98110.56;5050178;28;20052;-83
2023/01/19 07:30:17;;;;;;;0.52;0.52;;;;;;;19.29;51.93;98116.00;5048347;28;20033;-83
2023/01/19 07:32:43;;;;;;;0.52;0.52;;;;;;;19.29;51.74;98108.66;5047652;28;20142;-83
2023/01/19 07:35:09;;;;;;;0.45;0.45;;;;;;;19.28;51.79;98123.31;5048448;28;20044;-82
2023/01/19 07:37:34;;;;;;;0.40;0.40;;;;;;;19.31;51.98;98119.97;5049626;28;20039;-83
2023/01/19 07:40:00;;;;;;;0.50;0.50;;;;;;;19.29;51.82;98119.50;5049417;28;20021;-84
2023/01/19 07:42:26;;;;;;;0.40;0.40;;;;;;;19.29;52.02;98118.69;5048719;28;20517;-84
2023/01/19 07:44:52;;;;;;;0.50;0.50;;;;;;;19.30;51.93;98118.41;5032262;28;20029;-84
2023/01/19 07:47:17;;;;;;;0.50;0.50;;;;;;;19.31;52.04;98121.91;5050728;28;20386;-84
2023/01/19 07:49:43;;;;;;;0.50;0.50;;;;;;;19.28;51.83;98117.91;5050588;28;20401;-84
2023/01/19 07:52:09;;;;;;;0.40;0.40;;;;;;;19.30;51.99;98121.09;5050186;28;20029;-84
2023/01/19 07:54:34;;;;;;;0.40;0.40;;;;;;;19.29;51.76;98127.63;5050123;28;20143;-84
2023/01/19 07:57:00;;;;;;;0.60;0.60;;;;;;;19.27;51.91;98121.69;5050285;28;20036;-85
2023/01/19 07:59:29;;;;;;;0.50;0.50;;;;;;;19.30;52.06;98128.44;5050407;28;20029;-84
2023/01/19 08:01:56;;;;;;;0.50;0.50;;;;;;;19.29;51.88;98124.91;5050242;28;20024;-86
2023/01/19 08:04:22;;;;;;;0.43;0.43;;;;;;;19.31;52.05;98117.28;5049429;28;20045;-86
2023/01/19 08:06:48;;;;;;;0.45;0.45;;;;;;;19.29;52.01;98124.13;5049971;28;20021;-87
2023/01/19 08:09:13;;;;;;;0.60;0.60;;;;;;;19.30;51.96;98118.41;5047894;28;20454;-86
2023/01/19 08:11:39;;;;;;;0.55;0.55;;;;;;;19.30;52.05;98126.53;5049658;28;20382;-87
2023/01/19 08:14:05;;;;;;;0.50;0.50;;;;;;;19.32;51.91;98128.94;5033735;28;20037;-86
2023/01/19 08:16:31;;;;;;;0.95;0.70;;;;;;;19.30;52.05;98134.66;5029845;28;20033;-81
2023/01/19 08:18:56;;;;;;;0.85;0.75;;;;;;;19.31;52.04;98147.06;5012042;28;20053;-80
2023/01/19 08:21:22;;;;;;;0.65;0.65;;;;;;;19.32;51.96;98140.56;5029870;28;20406;-80
2023/01/19 08:23:55;;;;;;;0.63;0.63;;;;;;;19.32;51.89;98139.75;5012079;28;20083;-80
2023/01/19 08:26:26;;;;;;;0.52;0.52;;;;;;;19.30;51.89;98150.91;5029184;28;20029;-80
2023/01/19 08:28:53;;;;;;;0.70;0.70;;;;;;;19.32;51.81;98153.31;5029707;28;20036;-80
2023/01/19 08:31:19;;;;;;;0.68;0.68;;;;;;;19.30;51.96;98159.03;5029608;28;20021;-80
2023/01/19 08:33:44;;;;;;;0.60;0.60;;;;;;;19.31;51.98;98165.22;5025032;28;20107;-80
2023/01/19 08:36:10;;;;;;;0.60;0.60;;;;;;;19.31;51.92;98171.44;5028472;28;20470;-81
2023/01/19 08:38:38;;;;;;;0.90;0.70;;;;;;;19.28;52.16;98182.91;5029035;28;20714;-81
2023/01/19 08:41:09;;;;;;;0.88;0.88;;;;;;;19.32;52.15;98183.09;5029440;28;20029;-81
2023/01/19 08:43:36;;;;;;;0.70;0.70;;;;;;;19.31;51.96;98195.03;5029190;28;20060;-81
2023/01/19 08:46:02;;;;;;;0.70;0.70;;;;;;;19.28;52.26;98192.91;5028813;28;20026;-81
2023/01/19 08:48:31;;;;;;;0.60;0.60;;;;;;;19.31;52.04;98200.44;5011251;28;20029;-82
2023/01/19 08:50:57;;;;;;;0.80;0.80;;;;;;;19.29;52.16;98211.56;5029464;28;20055;-82
2023/01/19 08:53:23;;;;;;;0.70;0.70;;;;;;;19.31;52.07;98216.69;5029268;28;20060;-82
2023/01/19 08:55:49;;;;;;;0.70;0.70;;;;;;;19.31;52.09;98225.59;5029226;28;20029;-82
2023/01/19 08:58:15;;;;;;;0.70;0.70;;;;;;;19.26;52.41;98228.41;5028830;28;20034;-83
2023/01/19 09:00:40;;;;;;;0.80;0.80;;;;;;;19.28;52.33;98236.22;5029123;28;20033;-83
2023/01/19 09:03:08;;;;;;;0.70;0.70;;;;;;;19.30;52.37;98234.84;5011365;28;20113;-83
2023/01/19 09:05:36;;;;;;;0.70;0.70;;;;;;;19.32;52.18;98234.56;5011264;28;20510;-85
2023/01/19 09:08:02;;;;;;;0.60;0.60;;;;;;;19.28;52.58;98241.66;5011693;28;20034;-84
2023/01/19 09:10:34;;;;;;;0.75;0.70;;;;;;;19.31;52.47;98246.47;5028206;28;20026;-85
2023/01/19 09:13:04;;;;;;;0.90;0.80;;;;;;;19.31;52.37;98252.69;5020800;28;20442;-85
2023/01/19 09:15:32;;;;;;;0.68;0.68;;;;;;;19.31;52.23;98263.50;5031241;28;20629;-85
2023/01/19 09:17:58;;;;;;;0.60;0.60;;;;;;;19.30;52.42;98266.56;5047169;28;20425;-80
2023/01/19 09:20:24;;;;;;;0.63;0.63;;;;;;;19.31;52.46;98277.06;5047101;28;20094;-80
2023/01/19 09:22:50;;;;;;;0.70;0.70;;;;;;;19.30;52.42;98278.19;5048594;28;20032;-80
2023/01/19 09:25:15;;;;;;;0.70;0.68;;;;;;;19.31;52.65;98285.19;5048758;28;20098;-80
2023/01/19 09:27:41;;;;;;;0.50;0.50;;;;;;;19.31;52.57;98282.47;5048765;28;20053;-80
2023/01/19 09:30:10;;;;;;;0.52;0.52;;;;;;;19.31;52.75;98279.75;5048057;28;20505;-81
2023/01/19 09:32:35;;;;;;;0.82;0.70;;;;;;;19.28;52.75;98291.22;5046657;28;20029;-81
2023/01/19 09:35:01;;;;;;;0.57;0.57;;;;;;;19.30;52.68;98299.84;5048441;28;20098;-81
2023/01/19 09:37:27;;;;;;;0.60;0.60;;;;;;;19.27;52.94;98294.22;5048392;28;20037;-82
2023/01/19 09:39:52;;;;;;;0.60;0.60;;;;;;;19.28;52.71;98302.03;5048869;28;20056;-83
2023/01/19 09:42:32;;;;;;;0.50;0.50;;;;;;;19.30;52.50;98310.69;5047175;28;20520;-83
2023/01/19 09:44:57;;;;;;;0.70;0.70;;;;;;;19.29;52.98;98306.34;5025721;28;20456;-83
2023/01/19 09:47:27;;;;;;;0.50;0.50;;;;;;;19.30;52.76;98318.78;5048877;28;20120;-83
2023/01/19 09:49:57;;;;;;;0.60;0.60;;;;;;;19.32;52.85;98327.44;5052338;28;20079;-84
2023/01/19 09:52:23;;;;;;;0.52;0.52;;;;;;;19.30;52.81;98326.91;5057226;28;20032;-84
2023/01/19 09:54:56;;;;;;;0.55;0.55;;;;;;;19.32;52.88;98340.19;5067286;28;20029;-84
2023/01/19 09:57:26;;;;;;;0.40;0.40;;;;;;;19.31;52.80;98346.69;5061020;28;20097;-84
2023/01/19 09:59:56;;;;;;;0.60;0.50;;;;;;;19.36;52.54;98353.94;5050181;28;20056;-85
2023/01/19 10:02:42;;;;;;;0.50;0.50;;;;;;;19.31;53.05;98361.00;5030621;28;20027;-85
2023/01/19 10:05:27;;;;;;;0.60;0.60;;;;;;;19.27;53.06;98370.03;5047613;28;20256;-87
2023/01/19 10:08:15;;;;;;;0.50;0.47;;;;;;;19.30;53.24;98375.66;5046396;28;20048;-81
2023/01/19 10:10:44;;;;;;;0.40;0.40;;;;;;;19.28;53.02;98377.03;5048053;28;20104;-81
2023/01/19 10:13:35;;;;;;;0.55;0.55;;;;;;;19.32;53.02;98395.13;5046678;28;20098;-81
2023/01/19 10:16:19;;;;;;;0.73;0.63;;;;;;;19.27;53.04;98397.91;5045627;28;20025;-81
2023/01/19 10:18:50;;;;;;;0.50;0.50;;;;;;;19.28;53.38;98409.53;5047085;28;20063;-81
2023/01/19 10:21:31;;;;;;;0.52;0.52;;;;;;;19.29;52.82;98427.41;5048093;28;20398;-81
2023/01/19 10:24:13;;;;;;;0.52;0.50;;;;;;;19.32;53.20;98432.25;5046928;28;20437;-82
2023/01/19 10:26:44;;;;;;;0.43;0.43;;;;;;;19.19;53.05;98436.47;5046441;28;20029;-82
2023/01/19 10:29:35;;;;;;;0.50;0.50;;;;;;;19.25;53.45;98432.63;5048378;28;20064;-82
2023/01/19 10:32:22;;;;;;;0.45;0.45;;;;;;;19.26;52.96;98446.94;5050481;28;20271;-83
2023/01/19 10:34:51;;;;;;;0.50;0.50;;;;;;;19.25;52.36;98443.44;5049157;28;20029;-84
2023/01/19 10:37:16;;;;;;;0.43;0.43;;;;;;;19.25;53.68;98457.00;5050256;28;20040;-85
2023/01/19 10:39:45;;;;;;;0.40;0.40;;;;;;;19.30;53.70;98467.75;5051671;28;20478;-81
2023/01/19 10:42:18;;;;;;;0.47;0.47;;;;;;;19.29;53.66;98471.53;5034028;28;20427;-82
2023/01/19 10:44:44;;;;;;;0.52;0.52;;;;;;;19.30;53.02;98483.22;5050364;28;20359;-81
2023/01/19 10:47:18;;;;;;;0.60;0.60;;;;;;;19.29;53.58;98490.50;5051077;28;20036;-82
2023/01/19 10:49:44;;;;;;;0.55;0.55;;;;;;;19.24;53.74;98493.28;5049657;28;20466;-82
2023/01/19 10:52:35;;;;;;;0.52;0.52;;;;;;;19.25;53.64;98503.03;5051370;28;20044;-83
2023/01/19 10:55:02;;;;;;;0.50;0.50;;;;;;;19.29;53.83;98493.22;5044321;28;20102;-82
2023/01/19 10:57:35;;;;;;;0.60;0.60;;;;;;;19.30;53.56;98507.56;5050104;28;20226;-82
2023/01/19 11:00:03;;;;;;;0.55;0.55;;;;;;;19.31;53.58;98509.97;5050034;28;20091;-82
2023/01/19 11:02:29;;;;;;;0.52;0.52;;;;;;;19.28;53.71;98518.69;5050562;28;20064;-82
2023/01/19 11:04:59;;;;;;;0.52;0.50;;;;;;;19.27;53.92;98522.50;5051389;28;20040;-83
2023/01/19 11:07:25;;;;;;;0.50;0.50;;;;;;;19.24;53.87;98533.91;5048323;28;20029;-83
2023/01/19 11:10:20;;;;;;;0.40;0.40;;;;;;;19.27;53.84;98541.44;5051211;28;20493;-81
2023/01/19 11:12:51;;;;;;;0.50;0.50;;;;;;;19.23;53.73;98540.44;5045153;28;20051;-81
2023/01/19 11:15:33;;;;;;;0.60;0.60;;;;;;;19.21;53.89;98548.00;5030795;28;20033;-80
2023/01/19 11:18:00;;;;;;;0.82;0.70;;;;;;;19.13;53.48;98548.69;5012556;28;20056;-81
2023/01/19 11:20:28;;;;;;;0.60;0.60;;;;;;;19.20;54.12;98554.53;5030811;28;20029;-80
2023/01/19 11:23:29;;;;;;;0.93;0.60;;;;;;;19.23;53.93;98558.56;4996774;28;20036;-80
2023/01/19 11:26:00;;;;;;;0.50;0.50;;;;;;;19.22;53.81;98571.31;5023131;28;20124;-80
2023/01/19 11:28:27;;;;;;;0.45;0.45;;;;;;;19.27;54.05;98575.84;5028433;28;20436;-81
2023/01/19 11:30:59;;;;;;;0.60;0.60;;;;;;;19.21;52.46;98580.50;5028701;28;20025;-81
2023/01/19 11:33:46;;;;;;;0.80;0.80;;;;;;;19.14;51.51;98588.19;5011243;28;20044;-80
2023/01/19 11:36:16;;;;;;;0.70;0.70;;;;;;;19.23;54.09;98602.72;5011084;28;20530;-80
2023/01/19 11:38:43;;;;;;;0.57;0.57;;;;;;;19.25;54.25;98589.69;5012826;28;20033;-80
2023/01/19 11:41:32;;;;;;;0.70;0.70;;;;;;;19.20;53.54;98611.41;5030403;28;20025;-80
2023/01/19 11:44:20;;;;;;;0.60;0.60;;;;;;;19.22;54.18;98622.75;5028367;28;20047;-80
2023/01/19 11:46:46;;;;;;;0.50;0.50;;;;;;;19.24;54.06;98625.19;5011709;28;20242;-80
2023/01/19 11:49:28;;;;;;;0.57;0.55;;;;;;;19.18;52.89;98642.56;4996357;28;20045;-80
2023/01/19 11:52:32;;;;;;;0.80;0.80;;;;;;;19.19;53.46;98642.28;5014036;28;20040;-80